createdAt,value
2017-06-01T00:01:03.636Z,101498
2017-06-01T00:03:33.034Z,101501
2017-06-01T00:06:01.983Z,101503
2017-06-01T00:08:30.944Z,101496
2017-06-01T00:10:59.931Z,101495
2017-06-01T00:13:28.899Z,101494
2017-06-01T00:15:58.271Z,101497
2017-06-01T00:18:27.205Z,101499
2017-06-01T00:20:56.204Z,101499
2017-06-01T00:23:25.291Z,101500
2017-06-01T00:25:54.400Z,101506
2017-06-01T00:28:23.758Z,101506
2017-06-01T00:30:52.723Z,101508
2017-06-01T00:33:21.684Z,101513
2017-06-01T00:35:50.673Z,101512
2017-06-01T00:38:19.619Z,101510
2017-06-01T00:40:49.027Z,101510
2017-06-01T00:43:18.024Z,101516
2017-06-01T00:45:46.977Z,101507
2017-06-01T00:48:15.947Z,101505
2017-06-01T00:50:45.010Z,101498
2017-06-01T00:53:14.387Z,101505
2017-06-01T00:55:43.352Z,101501
2017-06-01T00:58:12.303Z,101496
2017-06-01T01:00:41.259Z,101499
2017-06-01T01:03:10.209Z,101501
2017-06-01T01:05:39.576Z,101504
2017-06-01T01:08:08.542Z,101510
2017-06-01T01:10:37.487Z,101501
2017-06-01T01:13:06.495Z,101495
2017-06-01T01:15:35.481Z,101498
2017-06-01T01:18:04.831Z,101491
2017-06-01T01:20:33.779Z,101476
2017-06-01T01:23:02.878Z,101479
2017-06-01T01:25:31.832Z,101475
2017-06-01T01:28:00.774Z,101477
2017-06-01T01:30:30.146Z,101476
2017-06-01T01:32:59.086Z,101465
2017-06-01T01:35:28.023Z,101474
2017-06-01T01:37:56.972Z,101470
2017-06-01T01:40:25.903Z,101471
2017-06-01T01:42:55.222Z,101470
2017-06-01T01:45:24.173Z,101470
2017-06-01T01:47:53.123Z,101471
2017-06-01T01:50:22.080Z,101470
2017-06-01T01:55:42.429Z,101459
2017-06-01T01:58:11.422Z,101462
2017-06-01T02:00:40.361Z,101467
2017-06-01T02:03:09.311Z,101469
2017-06-01T02:05:38.255Z,101471
2017-06-01T02:08:07.546Z,101472
2017-06-01T02:10:36.554Z,101475
2017-06-01T02:13:05.481Z,101471
2017-06-01T02:15:34.430Z,101462
2017-06-01T02:18:03.370Z,101473
2017-06-01T02:20:32.326Z,101475
2017-06-01T02:23:01.252Z,101476
2017-06-01T02:25:30.539Z,101466
2017-06-01T02:27:59.499Z,101470
2017-06-01T02:30:28.467Z,101462
2017-06-01T02:32:57.422Z,101463
2017-06-01T02:35:26.352Z,101461
2017-06-01T02:37:55.704Z,101463
2017-06-01T02:40:24.719Z,101468
2017-06-01T02:42:53.663Z,101457
2017-06-01T02:45:22.629Z,101473
2017-06-01T02:47:51.566Z,101466
2017-06-01T02:50:20.861Z,101475
2017-06-01T02:52:49.789Z,101468
2017-06-01T02:55:18.718Z,101484
2017-06-01T02:57:47.667Z,101480
2017-06-01T03:00:16.619Z,101478
2017-06-01T03:02:45.927Z,101482
2017-06-01T03:05:14.882Z,101480
2017-06-01T03:07:43.835Z,101479
2017-06-01T03:10:12.845Z,101484
2017-06-01T03:12:41.798Z,101482
2017-06-01T03:15:11.202Z,101482
2017-06-01T03:17:40.171Z,101475
2017-06-01T03:20:09.112Z,101486
2017-06-01T03:22:38.143Z,101489
2017-06-01T03:25:07.090Z,101497
2017-06-01T03:30:03.913Z,101496
2017-06-01T03:32:32.871Z,101489
2017-06-01T03:35:02.268Z,101489
2017-06-01T03:37:31.224Z,101495
2017-06-01T03:40:00.168Z,101494
2017-06-01T03:42:29.117Z,101488
2017-06-01T03:44:58.080Z,101497
2017-06-01T03:47:27.378Z,101495
2017-06-01T03:49:56.306Z,101494
2017-06-01T03:52:25.249Z,101500
2017-06-01T03:54:54.211Z,101497
2017-06-01T03:57:23.182Z,101499
2017-06-01T03:59:52.623Z,101505
2017-06-01T04:02:21.582Z,101505
2017-06-01T04:04:50.785Z,101500
2017-06-01T04:07:19.738Z,101508
2017-06-01T04:09:48.765Z,101508
2017-06-01T04:12:18.105Z,101512
2017-06-01T04:14:47.051Z,101516
2017-06-01T04:17:16.003Z,101520
2017-06-01T04:19:44.955Z,101526
2017-06-01T04:22:13.886Z,101519
2017-06-01T04:24:43.241Z,101527
2017-06-01T04:27:12.183Z,101522
2017-06-01T04:29:41.139Z,101515
2017-06-01T04:32:10.110Z,101517
2017-06-01T04:34:39.076Z,101531
2017-06-01T04:37:08.652Z,101528
2017-06-01T04:39:37.629Z,101525
2017-06-01T04:42:06.558Z,101519
2017-06-01T04:44:35.561Z,101523
2017-06-01T04:47:04.514Z,101525
2017-06-01T04:49:33.822Z,101524
2017-06-01T04:52:02.753Z,101530
2017-06-01T04:54:31.703Z,101532
2017-06-01T04:57:00.690Z,101537
2017-06-01T04:59:29.644Z,101534
2017-06-01T05:01:58.986Z,101539
2017-06-01T05:04:27.933Z,101530
2017-06-01T05:06:56.889Z,101542
2017-06-01T05:09:25.872Z,101535
2017-06-01T05:11:54.827Z,101543
2017-06-01T05:14:24.152Z,101544
2017-06-01T05:16:53.103Z,101543
2017-06-01T05:19:22.002Z,101542
2017-06-01T05:21:51.006Z,101549
2017-06-01T05:24:19.942Z,101534
2017-06-01T05:26:49.322Z,101539
2017-06-01T05:29:18.333Z,101542
2017-06-01T05:31:47.377Z,101540
2017-06-01T05:34:16.390Z,101545
2017-06-01T05:36:45.337Z,101548
2017-06-01T05:39:14.369Z,101546
2017-06-01T05:41:43.320Z,101553
2017-06-01T05:44:12.278Z,101548
2017-06-01T05:46:41.651Z,101554
2017-06-01T05:49:10.594Z,101549
2017-06-01T05:51:39.539Z,101547
2017-06-01T05:54:08.714Z,101539
2017-06-01T05:56:37.675Z,101547
2017-06-01T05:59:06.981Z,101550
2017-06-01T06:01:35.930Z,101551
2017-06-01T06:04:04.924Z,101541
2017-06-01T06:06:34.155Z,101550
2017-06-01T06:09:03.095Z,101551
2017-06-01T06:11:32.511Z,101550
2017-06-01T06:14:01.494Z,101548
2017-06-01T06:16:30.471Z,101553
2017-06-01T06:18:59.496Z,101553
2017-06-01T06:21:28.496Z,101548
2017-06-01T06:23:57.874Z,101549
2017-06-01T06:26:26.973Z,101562
2017-06-01T06:28:55.930Z,101552
2017-06-01T06:31:24.912Z,101568
2017-06-01T06:33:53.898Z,101554
2017-06-01T06:36:23.246Z,101552
2017-06-01T06:38:52.205Z,101560
2017-06-01T06:41:21.189Z,101549
2017-06-01T06:43:50.152Z,101558
2017-06-01T06:46:19.098Z,101556
2017-06-01T06:48:48.399Z,101557
2017-06-01T06:51:17.335Z,101549
2017-06-01T06:53:46.258Z,101560
2017-06-01T06:56:15.235Z,101559
2017-06-01T06:58:44.197Z,101571
2017-06-01T07:01:13.607Z,101566
2017-06-01T07:03:42.595Z,101556
2017-06-01T07:06:11.554Z,101553
2017-06-01T07:08:40.614Z,101573
2017-06-01T07:11:09.571Z,101561
2017-06-01T07:13:38.886Z,101560
2017-06-01T07:16:07.846Z,101577
2017-06-01T07:18:36.817Z,101570
2017-06-01T07:21:05.773Z,101579
2017-06-01T07:23:34.717Z,101565
2017-06-01T07:26:04.019Z,101567
2017-06-01T07:28:32.962Z,101574
2017-06-01T07:31:01.964Z,101580
2017-06-01T07:33:31.035Z,101576
2017-06-01T07:36:00.243Z,101567
2017-06-01T07:38:29.559Z,101562
2017-06-01T07:40:58.507Z,101567
2017-06-01T07:43:27.506Z,101563
2017-06-01T07:45:56.500Z,101565
2017-06-01T07:48:25.535Z,101565
2017-06-01T07:50:55.788Z,101573
2017-06-01T07:53:24.776Z,101570
2017-06-01T07:55:53.743Z,101569
2017-06-01T07:58:22.705Z,101584
2017-06-01T08:00:51.686Z,101587
2017-06-01T08:03:20.994Z,101584
2017-06-01T08:05:49.946Z,101590
2017-06-01T08:08:18.876Z,101588
2017-06-01T08:10:47.871Z,101598
2017-06-01T08:13:16.978Z,101582
2017-06-01T08:15:46.376Z,101583
2017-06-01T08:18:15.331Z,101583
2017-06-01T08:20:44.296Z,101569
2017-06-01T08:23:13.278Z,101583
2017-06-01T08:25:42.241Z,101592
2017-06-01T08:28:11.555Z,101583
2017-06-01T08:30:40.569Z,101578
2017-06-01T08:33:09.508Z,101588
2017-06-01T08:35:38.488Z,101572
2017-06-01T08:38:07.480Z,101574
2017-06-01T08:40:36.833Z,101577
2017-06-01T08:43:05.785Z,101582
2017-06-01T08:45:34.797Z,101579
2017-06-01T08:48:03.810Z,101584
2017-06-01T08:50:32.761Z,101594
2017-06-01T08:53:01.734Z,101595
2017-06-01T08:55:30.755Z,101574
2017-06-01T08:58:00.095Z,101581
2017-06-01T09:00:29.063Z,101581
2017-06-01T09:02:58.047Z,101577
2017-06-01T09:05:26.998Z,101568
2017-06-01T09:07:55.165Z,101582
2017-06-01T09:10:24.556Z,101580
2017-06-01T09:12:53.594Z,101581
2017-06-01T09:15:22.587Z,101571
2017-06-01T09:17:51.558Z,101572
2017-06-01T09:20:20.523Z,101577
2017-06-01T09:22:49.085Z,101585
2017-06-01T09:25:18.037Z,101586
2017-06-01T09:27:47.078Z,101576
2017-06-01T09:30:16.094Z,101578
2017-06-01T09:32:45.049Z,101582
2017-06-01T09:35:14.582Z,101580
2017-06-01T09:37:43.544Z,101582
2017-06-01T09:40:12.543Z,101595
2017-06-01T09:42:41.537Z,101591
2017-06-01T09:45:10.566Z,101588
2017-06-01T09:47:39.922Z,101598
2017-06-01T09:50:08.871Z,101593
2017-06-01T09:52:37.877Z,101590
2017-06-01T09:55:06.847Z,101590
2017-06-01T09:57:35.812Z,101601
2017-06-01T10:00:05.207Z,101600
2017-06-01T10:02:34.166Z,101602
2017-06-01T10:05:03.127Z,101603
2017-06-01T10:07:32.088Z,101599
2017-06-01T10:10:01.183Z,101605
2017-06-01T10:12:30.583Z,101594
2017-06-01T10:14:59.560Z,101591
2017-06-01T10:17:28.513Z,101587
2017-06-01T10:19:57.470Z,101589
2017-06-01T10:22:26.443Z,101585
2017-06-01T10:24:55.831Z,101590
2017-06-01T10:27:24.785Z,101577
2017-06-01T10:29:53.740Z,101575
2017-06-01T10:32:22.893Z,101593
2017-06-01T10:34:51.873Z,101583
2017-06-01T10:37:21.204Z,101576
2017-06-01T10:39:50.193Z,101583
2017-06-01T10:42:19.168Z,101595
2017-06-01T10:44:48.137Z,101582
2017-06-01T10:47:17.122Z,101613
2017-06-01T10:49:46.476Z,101595
2017-06-01T10:52:15.440Z,101595
2017-06-01T10:54:43.710Z,101604
2017-06-01T10:57:12.661Z,101595
2017-06-01T10:59:41.603Z,101602
2017-06-01T11:02:11.024Z,101589
2017-06-01T11:04:40.006Z,101597
2017-06-01T11:07:08.959Z,101588
2017-06-01T11:09:37.981Z,101581
2017-06-01T11:12:06.944Z,101579
2017-06-01T11:14:36.317Z,101579
2017-06-01T11:17:05.329Z,101575
2017-06-01T11:19:34.279Z,101569
2017-06-01T11:22:03.249Z,101575
2017-06-01T11:24:32.241Z,101575
2017-06-01T11:27:01.603Z,101573
2017-06-01T11:29:30.788Z,101570
2017-06-01T11:31:59.767Z,101563
2017-06-01T11:34:28.793Z,101558
2017-06-01T11:36:57.721Z,101557
2017-06-01T11:39:27.055Z,101558
2017-06-01T11:41:56.083Z,101564
2017-06-01T11:44:25.041Z,101561
2017-06-01T11:46:54.021Z,101553
2017-06-01T11:49:22.992Z,101558
2017-06-01T11:51:52.418Z,101557
2017-06-01T11:54:21.388Z,101559
2017-06-01T11:56:50.350Z,101558
2017-06-01T11:59:19.330Z,101554
2017-06-01T12:01:48.249Z,101568
2017-06-01T12:04:17.588Z,101567
2017-06-01T12:06:46.551Z,101554
2017-06-01T12:09:15.510Z,101551
2017-06-01T12:11:44.517Z,101556
2017-06-01T12:14:13.487Z,101559
2017-06-01T12:16:42.928Z,101557
2017-06-01T12:19:11.941Z,101554
2017-06-01T12:21:40.931Z,101546
2017-06-01T12:24:09.919Z,101541
2017-06-01T12:26:38.922Z,101545
2017-06-01T12:29:08.305Z,101544
2017-06-01T12:31:37.236Z,101534
2017-06-01T12:34:06.209Z,101546
2017-06-01T12:36:35.202Z,101536
2017-06-01T12:39:04.174Z,101533
2017-06-01T12:41:33.583Z,101532
2017-06-01T12:44:02.544Z,101529
2017-06-01T12:46:31.634Z,101523
2017-06-01T12:48:59.828Z,101528
2017-06-01T12:51:28.812Z,101527
2017-06-01T12:53:58.239Z,101528
2017-06-01T12:56:27.278Z,101518
2017-06-01T12:58:56.236Z,101525
2017-06-01T13:01:25.281Z,101521
2017-06-01T13:03:54.235Z,101509
2017-06-01T13:06:23.605Z,101515
2017-06-01T13:08:52.573Z,101518
2017-06-01T13:11:21.535Z,101525
2017-06-01T13:13:50.509Z,101514
2017-06-01T13:16:19.473Z,101516
2017-06-01T13:18:48.779Z,101513
2017-06-01T13:21:17.802Z,101510
2017-06-01T13:23:46.860Z,101509
2017-06-01T13:26:15.865Z,101500
2017-06-01T13:28:44.906Z,101505
2017-06-01T13:31:14.250Z,101503
2017-06-01T13:33:43.233Z,101503
2017-06-01T13:36:12.200Z,101501
2017-06-01T13:38:41.209Z,101492
2017-06-01T13:41:10.282Z,101491
2017-06-01T13:43:39.721Z,101495
2017-06-01T13:46:08.847Z,101501
2017-06-01T13:48:37.819Z,101492
2017-06-01T13:51:06.784Z,101494
2017-06-01T13:53:35.776Z,101490
2017-06-01T13:56:05.110Z,101482
2017-06-01T13:58:34.093Z,101480
2017-06-01T14:01:03.095Z,101472
2017-06-01T14:03:32.058Z,101479
2017-06-01T14:06:01.023Z,101478
2017-06-01T14:08:30.471Z,101472
2017-06-01T14:10:59.483Z,101465
2017-06-01T14:13:28.465Z,101471
2017-06-01T14:15:57.498Z,101462
2017-06-01T14:18:26.459Z,101459
2017-06-01T14:20:55.840Z,101463
2017-06-01T14:23:24.820Z,101459
2017-06-01T14:25:53.788Z,101462
2017-06-01T14:28:22.821Z,101452
2017-06-01T14:30:51.777Z,101453
2017-06-01T14:33:21.112Z,101442
2017-06-01T14:35:50.109Z,101448
2017-06-01T14:38:19.059Z,101451
2017-06-01T14:40:48.054Z,101441
2017-06-01T14:43:17.037Z,101440
2017-06-01T14:45:46.337Z,101447
2017-06-01T14:48:15.333Z,101440
2017-06-01T14:50:44.322Z,101441
2017-06-01T14:53:13.385Z,101438
2017-06-01T14:55:42.357Z,101443
2017-06-01T14:58:11.710Z,101443
2017-06-01T15:00:40.725Z,101426
2017-06-01T15:03:09.652Z,101433
2017-06-01T15:05:38.628Z,101428
2017-06-01T15:08:07.566Z,101426
2017-06-01T15:10:36.917Z,101415
2017-06-01T15:13:05.893Z,101411
2017-06-01T15:15:34.930Z,101407
2017-06-01T15:18:03.915Z,101411
2017-06-01T15:20:32.851Z,101402
2017-06-01T15:23:02.219Z,101401
2017-06-01T15:25:31.206Z,101403
2017-06-01T15:28:00.210Z,101397
2017-06-01T15:30:29.323Z,101398
2017-06-01T15:32:58.288Z,101393
2017-06-01T15:35:27.647Z,101393
2017-06-01T15:37:56.611Z,101380
2017-06-01T15:40:25.551Z,101397
2017-06-01T15:42:54.601Z,101393
2017-06-01T15:45:23.559Z,101399
2017-06-01T15:47:53.189Z,101391
2017-06-01T15:50:22.103Z,101390
2017-06-01T15:52:51.070Z,101395
2017-06-01T15:55:20.070Z,101385
2017-06-01T15:57:49.019Z,101380
2017-06-01T16:00:18.368Z,101387
2017-06-01T16:02:47.350Z,101397
2017-06-01T16:05:16.321Z,101387
2017-06-01T16:07:45.302Z,101386
2017-06-01T16:10:14.266Z,101385
2017-06-01T16:12:43.580Z,101387
2017-06-01T16:15:12.699Z,101381
2017-06-01T16:17:41.705Z,101377
2017-06-01T16:20:10.748Z,101373
2017-06-01T16:22:39.763Z,101375
2017-06-01T16:25:09.119Z,101376
2017-06-01T16:27:38.093Z,101384
2017-06-01T16:30:07.100Z,101369
2017-06-01T16:32:36.043Z,101370
2017-06-01T16:35:05.112Z,101370
2017-06-01T16:37:34.475Z,101364
2017-06-01T16:40:03.497Z,101375
2017-06-01T16:42:32.446Z,101370
2017-06-01T16:45:01.448Z,101382
2017-06-01T16:47:30.455Z,101386
2017-06-01T16:49:59.903Z,101385
2017-06-01T16:52:28.863Z,101382
2017-06-01T16:54:57.834Z,101382
2017-06-01T16:57:26.839Z,101387
2017-06-01T16:59:55.788Z,101385
2017-06-01T17:02:25.118Z,101381
2017-06-01T17:04:54.097Z,101383
2017-06-01T17:07:23.051Z,101394
2017-06-01T17:09:52.044Z,101377
2017-06-01T17:12:21.178Z,101380
2017-06-01T17:14:50.503Z,101382
2017-06-01T17:17:19.463Z,101381
2017-06-01T17:19:48.460Z,101383
2017-06-01T17:22:17.487Z,101372
2017-06-01T17:24:46.479Z,101379
2017-06-01T17:27:15.780Z,101378
2017-06-01T17:29:44.744Z,101386
2017-06-01T17:32:13.718Z,101378
2017-06-01T17:34:42.674Z,101376
2017-06-01T17:37:11.627Z,101377
2017-06-01T17:39:41.006Z,101376
2017-06-01T17:42:09.971Z,101370
2017-06-01T17:44:38.954Z,101370
2017-06-01T17:47:07.940Z,101360
2017-06-01T17:49:36.946Z,101364
2017-06-01T17:52:06.300Z,101359
2017-06-01T17:54:35.374Z,101352
2017-06-01T17:57:04.332Z,101356
2017-06-01T17:59:33.341Z,101352
2017-06-01T18:02:02.447Z,101356
2017-06-01T18:04:31.868Z,101359
2017-06-01T18:07:00.828Z,101355
2017-06-01T18:09:29.776Z,101347
2017-06-01T18:11:58.779Z,101348
2017-06-01T18:14:27.742Z,101351
2017-06-01T18:16:57.131Z,101355
2017-06-01T18:19:26.081Z,101352
2017-06-01T18:21:55.003Z,101356
2017-06-01T18:24:24.052Z,101350
2017-06-01T18:26:53.025Z,101351
2017-06-01T18:29:22.403Z,101349
2017-06-01T18:31:51.366Z,101346
2017-06-01T18:34:20.330Z,101348
2017-06-01T18:36:49.292Z,101356
2017-06-01T18:39:18.272Z,101343
2017-06-01T18:41:47.710Z,101358
2017-06-01T18:44:16.844Z,101356
2017-06-01T18:49:21.345Z,101359
2017-06-01T18:51:50.360Z,101366
2017-06-01T18:54:19.708Z,101360
2017-06-01T18:56:48.745Z,101370
2017-06-01T18:59:17.742Z,101371
2017-06-01T19:01:46.744Z,101367
2017-06-01T19:04:15.705Z,101363
2017-06-01T19:06:45.209Z,101360
2017-06-01T19:09:14.164Z,101362
2017-06-01T19:11:43.153Z,101361
2017-06-01T19:14:12.131Z,101364
2017-06-01T19:16:41.131Z,101359
2017-06-01T19:19:10.467Z,101357
2017-06-01T19:21:39.438Z,101356
2017-06-01T19:24:08.410Z,101356
2017-06-01T19:26:37.488Z,101358
2017-06-01T19:29:06.471Z,101361
2017-06-01T19:31:35.848Z,101362
2017-06-01T19:34:04.811Z,101364
2017-06-01T19:36:33.775Z,101362
2017-06-01T19:39:02.751Z,101363
2017-06-01T19:41:31.708Z,101367
2017-06-01T19:44:01.039Z,101369
2017-06-01T19:46:30.033Z,101374
2017-06-01T19:48:59.005Z,101376
2017-06-01T19:51:28.008Z,101377
2017-06-01T19:53:57.011Z,101375
2017-06-01T19:56:26.460Z,101377
2017-06-01T19:58:55.407Z,101379
2017-06-01T20:01:24.463Z,101383
2017-06-01T20:03:55.942Z,101381
2017-06-01T20:06:25.011Z,101386
2017-06-01T20:08:54.422Z,101377
2017-06-01T20:11:23.471Z,101373
2017-06-01T20:13:52.481Z,101374
2017-06-01T20:16:21.476Z,101371
2017-06-01T20:18:50.461Z,101378
2017-06-01T20:21:19.975Z,101374
2017-06-01T20:23:48.938Z,101380
2017-06-01T20:26:17.904Z,101385
2017-06-01T20:28:46.919Z,101384
2017-06-01T20:31:15.927Z,101385
2017-06-01T20:33:45.263Z,101392
2017-06-01T20:36:14.344Z,101385
2017-06-01T20:38:43.326Z,101393
2017-06-01T20:41:12.306Z,101398
2017-06-01T20:43:40.499Z,101403
2017-06-01T20:46:09.870Z,101394
2017-06-01T20:48:38.835Z,101397
2017-06-01T20:51:07.851Z,101398
2017-06-01T20:53:36.209Z,101407
2017-06-01T20:56:05.234Z,101389
2017-06-01T20:58:34.667Z,101394
2017-06-01T21:01:03.672Z,101401
2017-06-01T21:03:32.621Z,101398
2017-06-01T21:06:01.600Z,101403
2017-06-01T21:08:30.553Z,101399
2017-06-01T21:11:00.005Z,101404
2017-06-01T21:13:28.967Z,101403
2017-06-01T21:15:57.913Z,101395
2017-06-01T21:18:26.892Z,101397
2017-06-01T21:20:55.890Z,101398
2017-06-01T21:23:25.265Z,101402
2017-06-01T21:25:54.293Z,101395
2017-06-01T21:28:23.244Z,101390
2017-06-01T21:30:52.311Z,101396
2017-06-01T21:33:21.309Z,101394
2017-06-01T21:35:50.814Z,101399
2017-06-01T21:38:19.766Z,101397
2017-06-01T21:40:49.074Z,101397
2017-06-01T21:43:18.031Z,101395
2017-06-01T21:45:47.226Z,101396
2017-06-01T21:48:16.518Z,101379
2017-06-01T21:50:45.529Z,101395
2017-06-01T21:53:14.538Z,101392
2017-06-01T21:55:43.521Z,101386
2017-06-01T21:58:12.479Z,101383
2017-06-01T22:00:41.985Z,101334
2017-06-01T22:03:11.051Z,101376
2017-06-01T22:05:40.058Z,101375
2017-06-01T22:08:09.145Z,101373
2017-06-01T22:10:38.114Z,101375
2017-06-01T22:13:06.814Z,101374
2017-06-01T22:15:35.770Z,101370
2017-06-01T22:18:04.714Z,101357
2017-06-01T22:20:33.681Z,101362
2017-06-01T22:23:02.648Z,101366
2017-06-01T22:25:31.671Z,101366
2017-06-01T22:28:00.630Z,101357
2017-06-01T22:30:30.007Z,101362
2017-06-01T22:32:58.981Z,101360
2017-06-01T22:35:27.931Z,101360
2017-06-01T22:37:56.894Z,101347
2017-06-01T22:40:25.839Z,101348
2017-06-01T22:42:55.266Z,101346
2017-06-01T22:45:24.230Z,101350
2017-06-01T22:47:53.177Z,101334
2017-06-01T22:50:22.159Z,101340
2017-06-01T22:52:51.206Z,101342
2017-06-01T22:55:20.544Z,101336
2017-06-01T22:57:49.551Z,101324
2017-06-01T23:00:18.495Z,101327
2017-06-01T23:02:47.959Z,101332
2017-06-01T23:05:17.003Z,101326
2017-06-01T23:07:46.425Z,101335
2017-06-01T23:10:15.350Z,101335
2017-06-01T23:12:44.298Z,101336
2017-06-01T23:15:13.295Z,101334
2017-06-01T23:17:42.252Z,101332
2017-06-01T23:20:11.755Z,101341
2017-06-01T23:22:40.731Z,101339
2017-06-01T23:25:09.681Z,101332
2017-06-01T23:27:38.637Z,101332
2017-06-01T23:30:07.607Z,101337
2017-06-01T23:32:36.928Z,101335
2017-06-01T23:35:05.876Z,101328
2017-06-01T23:37:34.827Z,101326
2017-06-01T23:40:03.801Z,101326
2017-06-01T23:42:32.748Z,101333
2017-06-01T23:45:02.126Z,101329
2017-06-01T23:47:31.097Z,101324
2017-06-01T23:50:00.037Z,101328
2017-06-01T23:52:28.998Z,101325
2017-06-01T23:54:57.996Z,101330
2017-06-01T23:57:26.516Z,101320
2017-06-01T23:59:55.471Z,101322
